createdAt,value
2022-11-18T00:00:58.631Z,72.94
2022-11-18T00:03:31.545Z,73.43
2022-11-18T00:06:03.421Z,73.95
2022-11-18T00:08:35.210Z,73.94
2022-11-18T00:11:10.296Z,73.89
2022-11-18T00:14:14.259Z,73.42
2022-11-18T00:16:46.326Z,73.75
2022-11-18T00:19:19.435Z,74.22
2022-11-18T00:21:51.821Z,73.65
2022-11-18T00:24:23.834Z,73.81
2022-11-18T00:26:55.648Z,73.40
2022-11-18T00:29:28.369Z,74.21
2022-11-18T00:32:00.592Z,73.60
2022-11-18T00:34:32.580Z,74.06
2022-11-18T00:37:04.378Z,73.78
2022-11-18T00:39:36.094Z,73.18
2022-11-18T00:42:26.245Z,73.47
2022-11-18T00:44:57.902Z,73.41
2022-11-18T00:47:29.525Z,73.26
2022-11-18T00:50:01.180Z,74.08
2022-11-18T00:52:33.381Z,73.59
2022-11-18T00:55:06.175Z,73.53
2022-11-18T00:57:37.812Z,73.15
2022-11-18T01:00:12.467Z,72.90
2022-11-18T01:02:44.589Z,73.42
2022-11-18T01:05:16.674Z,72.83
2022-11-18T01:07:48.831Z,73.53
2022-11-18T01:10:20.767Z,73.49
2022-11-18T01:13:11.028Z,73.34
2022-11-18T01:15:45.317Z,72.58
2022-11-18T01:18:17.307Z,71.89
2022-11-18T01:20:49.370Z,71.45
2022-11-18T01:23:22.410Z,72.53
2022-11-18T01:25:54.237Z,72.15
2022-11-18T01:28:25.979Z,71.60
2022-11-18T01:31:04.125Z,71.96
2022-11-18T01:33:36.718Z,72.35
2022-11-18T01:36:18.159Z,72.54
2022-11-18T01:38:51.250Z,72.00
2022-11-18T01:41:25.846Z,72.47
2022-11-18T01:43:59.787Z,71.54
2022-11-18T01:46:33.151Z,71.07
2022-11-18T01:49:08.638Z,71.61
2022-11-18T01:51:47.701Z,71.76
2022-11-18T01:54:25.375Z,71.61
2022-11-18T01:57:00.461Z,72.06
2022-11-18T01:59:36.783Z,72.08
2022-11-18T02:02:13.029Z,71.95
2022-11-18T02:04:48.841Z,71.80
2022-11-18T02:07:22.216Z,72.20
2022-11-18T02:09:54.885Z,71.92
2022-11-18T02:12:26.777Z,72.10
2022-11-18T02:15:00.324Z,72.32
2022-11-18T02:17:44.593Z,72.05
2022-11-18T02:20:35.349Z,72.17
2022-11-18T02:23:35.661Z,71.96
2022-11-18T02:26:43.359Z,71.85
2022-11-18T02:29:21.180Z,72.55
2022-11-18T02:32:00.351Z,72.82
2022-11-18T02:34:41.380Z,72.76
2022-11-18T02:37:21.982Z,72.30
2022-11-18T02:40:00.184Z,72.46
2022-11-18T02:42:36.362Z,73.09
2022-11-18T02:45:14.686Z,73.12
2022-11-18T02:47:49.440Z,73.50
2022-11-18T02:50:27.537Z,73.24
2022-11-18T02:53:02.540Z,73.79
2022-11-18T02:55:39.209Z,73.86
2022-11-18T02:58:12.849Z,73.71
2022-11-18T03:00:45.226Z,73.94
2022-11-18T03:03:29.843Z,73.61
2022-11-18T03:06:11.321Z,73.62
2022-11-18T03:08:52.440Z,73.83
2022-11-18T03:11:29.396Z,73.96
2022-11-18T03:14:13.669Z,73.97
2022-11-18T03:16:53.239Z,73.58
2022-11-18T03:19:31.625Z,73.79
2022-11-18T03:22:12.826Z,73.75
2022-11-18T03:24:50.654Z,73.69
2022-11-18T03:27:27.267Z,74.15
2022-11-18T03:30:05.060Z,74.98
2022-11-18T03:32:42.127Z,75.09
2022-11-18T03:35:18.030Z,75.87
2022-11-18T03:37:51.630Z,76.61
2022-11-18T03:40:29.387Z,77.91
2022-11-18T03:43:07.446Z,78.74
2022-11-18T03:45:43.961Z,78.25
2022-11-18T03:48:18.825Z,78.48
2022-11-18T03:50:56.845Z,78.87
2022-11-18T03:53:32.148Z,79.96
2022-11-18T03:56:15.807Z,79.50
2022-11-18T03:58:54.501Z,80.10
2022-11-18T04:01:35.554Z,79.72
2022-11-18T04:04:07.971Z,79.46
2022-11-18T04:06:44.346Z,79.50
2022-11-18T04:09:19.644Z,79.53
2022-11-18T04:12:05.045Z,79.90
2022-11-18T04:14:43.745Z,79.83
2022-11-18T04:17:17.962Z,79.42
2022-11-18T04:19:51.164Z,79.10
2022-11-18T04:22:23.326Z,79.00
2022-11-18T04:24:55.443Z,79.47
2022-11-18T04:27:27.217Z,78.98
2022-11-18T04:29:59.114Z,78.61
2022-11-18T04:32:31.199Z,79.23
2022-11-18T04:35:03.104Z,79.30
2022-11-18T04:37:34.761Z,80.10
2022-11-18T04:40:07.626Z,80.02
2022-11-18T04:42:39.438Z,79.85
2022-11-18T04:45:12.958Z,80.22
2022-11-18T04:47:45.005Z,80.10
2022-11-18T04:50:17.065Z,79.50
2022-11-18T04:52:48.719Z,79.18
2022-11-18T04:55:20.570Z,78.92
2022-11-18T04:57:52.282Z,79.55
2022-11-18T05:00:24.318Z,79.41
2022-11-18T05:02:56.212Z,79.27
2022-11-18T05:05:27.843Z,78.89
2022-11-18T05:08:00.454Z,78.83
2022-11-18T05:10:32.068Z,78.45
2022-11-18T05:13:03.897Z,78.39
2022-11-18T05:15:36.224Z,78.56
2022-11-18T05:18:11.079Z,78.41
2022-11-18T05:20:42.781Z,78.92
2022-11-18T05:23:14.788Z,78.72
2022-11-18T05:25:46.498Z,78.78
2022-11-18T05:28:18.136Z,78.87
2022-11-18T05:30:50.573Z,79.06
2022-11-18T05:33:22.236Z,78.39
2022-11-18T05:35:55.363Z,78.59
2022-11-18T05:38:27.449Z,78.88
2022-11-18T05:40:59.287Z,79.14
2022-11-18T05:43:31.990Z,78.99
2022-11-18T05:46:02.718Z,79.54
2022-11-18T05:48:35.266Z,79.23
2022-11-18T05:51:07.701Z,79.29
2022-11-18T05:53:39.464Z,79.68
2022-11-18T05:56:20.215Z,79.91
2022-11-18T05:58:52.224Z,80.05
2022-11-18T06:01:29.029Z,80.02
2022-11-18T06:04:03.770Z,80.54
2022-11-18T06:06:36.060Z,79.97
2022-11-18T06:09:09.754Z,80.01
2022-11-18T06:11:46.152Z,79.83
2022-11-18T06:14:22.517Z,79.95
2022-11-18T06:16:57.655Z,80.04
2022-11-18T06:19:29.860Z,80.12
2022-11-18T06:22:02.578Z,80.57
2022-11-18T06:24:35.000Z,80.35
2022-11-18T06:27:08.135Z,80.87
2022-11-18T06:29:39.842Z,81.13
2022-11-18T06:32:13.199Z,81.26
2022-11-18T06:34:45.388Z,80.60
2022-11-18T06:37:18.756Z,80.59
2022-11-18T06:39:50.995Z,80.44
2022-11-18T06:42:40.602Z,80.29
2022-11-18T06:45:13.857Z,79.91
2022-11-18T06:47:46.532Z,78.94
2022-11-18T06:50:19.207Z,78.24
2022-11-18T06:52:49.949Z,78.13
2022-11-18T06:55:22.346Z,77.58
2022-11-18T06:57:55.764Z,77.29
2022-11-18T07:00:28.395Z,76.56
2022-11-18T07:03:03.240Z,76.90
2022-11-18T07:05:35.287Z,76.13
2022-11-18T07:08:08.064Z,75.70
2022-11-18T07:10:40.284Z,75.04
2022-11-18T07:13:12.294Z,75.02
2022-11-18T07:15:44.503Z,74.78
2022-11-18T07:18:16.540Z,74.52
2022-11-18T07:20:48.602Z,74.90
2022-11-18T07:23:22.317Z,75.10
2022-11-18T07:25:57.080Z,74.64
2022-11-18T07:28:30.432Z,74.56
2022-11-18T07:31:07.919Z,74.78
2022-11-18T07:33:41.543Z,75.08
2022-11-18T07:36:15.768Z,74.94
2022-11-18T07:38:48.285Z,74.62
2022-11-18T07:41:21.656Z,74.20
2022-11-18T07:44:00.110Z,74.24
2022-11-18T07:46:35.334Z,74.45
2022-11-18T07:49:09.717Z,74.51
2022-11-18T07:51:42.774Z,74.41
2022-11-18T07:54:17.144Z,74.27
2022-11-18T07:56:48.939Z,74.09
2022-11-18T07:59:20.887Z,73.59
2022-11-18T08:01:52.857Z,72.86
2022-11-18T08:04:25.044Z,72.47
2022-11-18T08:06:59.033Z,72.31
2022-11-18T08:09:31.384Z,71.93
2022-11-18T08:12:03.369Z,72.02
2022-11-18T08:14:35.846Z,72.19
2022-11-18T08:17:07.701Z,70.93
2022-11-18T08:19:39.835Z,70.09
2022-11-18T08:22:12.614Z,69.75
2022-11-18T08:24:44.642Z,69.07
2022-11-18T08:27:16.404Z,69.03
2022-11-18T08:29:48.675Z,69.61
2022-11-18T08:32:20.950Z,69.54
2022-11-18T08:34:52.956Z,68.29
2022-11-18T08:37:24.974Z,67.69
2022-11-18T08:39:57.369Z,67.59
2022-11-18T08:42:34.097Z,67.57
2022-11-18T08:45:08.541Z,67.67
2022-11-18T08:47:40.713Z,68.26
2022-11-18T08:50:13.761Z,68.06
2022-11-18T08:52:45.415Z,67.74
2022-11-18T08:55:17.296Z,67.54
2022-11-18T08:57:49.741Z,67.30
2022-11-18T09:00:22.548Z,67.26
2022-11-18T09:02:55.239Z,67.37
2022-11-18T09:05:26.867Z,67.79
2022-11-18T09:07:58.723Z,67.74
2022-11-18T09:10:30.437Z,67.32
2022-11-18T09:13:24.893Z,67.02
2022-11-18T09:15:53.869Z,66.93
2022-11-18T09:18:24.512Z,66.65
2022-11-18T09:21:00.615Z,66.65
2022-11-18T09:23:34.092Z,66.53
2022-11-18T09:26:08.553Z,66.26
2022-11-18T09:28:40.550Z,66.36
2022-11-18T09:31:14.600Z,66.08
2022-11-18T09:33:47.356Z,65.93
2022-11-18T09:36:19.105Z,65.60
2022-11-18T09:38:53.514Z,65.41
2022-11-18T09:41:44.832Z,65.51
2022-11-18T09:44:42.823Z,66.09
2022-11-18T09:47:30.898Z,65.80
2022-11-18T09:50:26.904Z,65.62
2022-11-18T09:53:11.930Z,65.57
2022-11-18T09:55:43.961Z,65.40
2022-11-18T09:58:19.911Z,65.20
2022-11-18T10:00:51.713Z,64.78
2022-11-18T10:03:29.892Z,64.18
2022-11-18T10:06:19.127Z,64.01
2022-11-18T10:09:06.989Z,63.65
2022-11-18T10:11:51.943Z,63.43
2022-11-18T10:14:39.865Z,63.33
2022-11-18T10:17:32.535Z,63.71
2022-11-18T10:20:21.294Z,63.67
2022-11-18T10:22:57.464Z,63.46
2022-11-18T10:25:29.432Z,63.57
2022-11-18T10:28:17.972Z,63.72
2022-11-18T10:30:51.756Z,62.93
2022-11-18T10:33:32.624Z,62.71
2022-11-18T10:36:30.893Z,62.82
2022-11-18T10:39:14.591Z,62.71
2022-11-18T10:41:53.391Z,63.01
2022-11-18T10:44:44.635Z,62.00
2022-11-18T10:47:33.948Z,62.63
2022-11-18T10:50:30.867Z,61.87
2022-11-18T10:53:03.073Z,61.75
2022-11-18T10:55:35.107Z,61.46
2022-11-18T10:58:17.112Z,61.45
2022-11-18T11:00:50.932Z,61.42
2022-11-18T11:03:37.155Z,61.40
2022-11-18T11:06:32.026Z,61.09
2022-11-18T11:09:08.156Z,61.65
2022-11-18T11:11:43.643Z,61.56
2022-11-18T11:14:28.351Z,62.17
2022-11-18T11:17:09.566Z,62.98
2022-11-18T11:19:49.092Z,63.63
2022-11-18T11:22:21.364Z,63.63
2022-11-18T11:24:53.542Z,63.52
2022-11-18T11:30:47.221Z,63.63
2022-11-18T11:33:27.796Z,63.81
2022-11-18T11:36:15.151Z,63.47
2022-11-18T11:39:04.223Z,63.31
2022-11-18T11:41:48.111Z,62.70
2022-11-18T11:44:41.301Z,62.61
2022-11-18T11:47:36.014Z,62.27
2022-11-18T11:50:19.676Z,61.39
2022-11-18T11:53:05.935Z,59.16
2022-11-18T11:55:45.888Z,58.74
2022-11-18T11:58:38.414Z,59.30
2022-11-18T12:01:20.137Z,58.70
2022-11-18T12:03:57.886Z,57.79
2022-11-18T12:06:30.236Z,57.74
2022-11-18T12:09:10.640Z,58.15
2022-11-18T12:11:49.897Z,58.28
2022-11-18T12:14:34.652Z,59.26
2022-11-18T12:17:16.248Z,59.69
2022-11-18T12:19:48.844Z,59.88
2022-11-18T12:22:20.665Z,59.88
2022-11-18T12:24:52.506Z,60.16
2022-11-18T12:27:59.982Z,60.84
2022-11-18T12:30:31.893Z,61.83
2022-11-18T12:33:03.949Z,62.51
2022-11-18T12:35:36.497Z,62.44
2022-11-18T12:38:28.397Z,62.26
2022-11-18T12:41:20.116Z,61.67
2022-11-18T12:44:14.147Z,61.47
2022-11-18T12:46:56.299Z,61.95
2022-11-18T12:50:12.775Z,62.45
2022-11-18T12:52:57.699Z,62.47
2022-11-18T12:55:34.503Z,62.61
2022-11-18T12:58:21.224Z,62.88
2022-11-18T13:01:06.209Z,62.42
2022-11-18T13:03:38.619Z,62.22
2022-11-18T13:06:32.926Z,62.31
2022-11-18T13:09:09.219Z,62.02
2022-11-18T13:11:48.627Z,61.89
2022-11-18T13:14:43.565Z,61.71
2022-11-18T13:17:48.341Z,61.97
2022-11-18T13:20:27.346Z,62.09
2022-11-18T13:23:18.940Z,62.09
2022-11-18T13:25:51.995Z,61.59
2022-11-18T13:28:34.196Z,61.33
2022-11-18T13:31:14.356Z,60.83
2022-11-18T13:33:46.166Z,61.16
2022-11-18T13:36:24.307Z,61.20
2022-11-18T13:39:01.238Z,60.86
2022-11-18T13:41:34.854Z,60.35
2022-11-18T13:44:21.132Z,60.41
2022-11-18T13:46:57.371Z,60.93
2022-11-18T13:49:48.896Z,61.22
2022-11-18T13:52:29.284Z,61.05
2022-11-18T13:55:04.243Z,60.77
2022-11-18T13:57:37.727Z,60.70
2022-11-18T14:00:24.403Z,60.71
2022-11-18T14:03:00.994Z,60.41
2022-11-18T14:05:32.961Z,60.28
2022-11-18T14:08:24.339Z,59.95
2022-11-18T14:10:56.153Z,59.67
2022-11-18T14:13:30.401Z,60.24
2022-11-18T14:16:03.739Z,60.83
2022-11-18T14:18:37.542Z,60.66
2022-11-18T14:21:12.803Z,60.46
2022-11-18T14:23:46.914Z,60.36
2022-11-18T14:26:31.315Z,61.07
2022-11-18T14:29:17.444Z,61.06
2022-11-18T14:32:14.146Z,61.57
2022-11-18T14:34:58.312Z,61.75
2022-11-18T14:37:31.338Z,62.17
2022-11-18T14:40:04.957Z,62.33
2022-11-18T14:42:39.696Z,62.00
2022-11-18T14:45:14.288Z,62.01
2022-11-18T14:47:48.639Z,62.00
2022-11-18T14:50:20.805Z,62.05
2022-11-18T14:52:53.141Z,61.65
2022-11-18T14:55:24.757Z,62.39
2022-11-18T14:57:56.600Z,62.10
2022-11-18T15:00:28.734Z,62.14
2022-11-18T15:03:00.651Z,62.09
2022-11-18T15:05:32.585Z,61.99
2022-11-18T15:08:07.792Z,62.35
2022-11-18T15:10:41.354Z,62.47
2022-11-18T15:13:13.596Z,62.38
2022-11-18T15:15:45.505Z,62.62
2022-11-18T15:18:17.314Z,62.48
2022-11-18T15:20:49.222Z,62.26
2022-11-18T15:23:23.487Z,62.66
2022-11-18T15:25:57.578Z,63.05
2022-11-18T15:28:30.191Z,63.24
2022-11-18T15:31:02.163Z,63.31
2022-11-18T15:33:33.888Z,63.69
2022-11-18T15:36:10.619Z,63.82
2022-11-18T15:38:44.549Z,64.25
2022-11-18T15:41:18.926Z,64.36
2022-11-18T15:43:51.676Z,64.49
2022-11-18T15:46:23.425Z,65.17
2022-11-18T15:48:56.886Z,65.13
2022-11-18T15:51:30.781Z,65.42
2022-11-18T15:54:03.093Z,65.51
2022-11-18T15:56:37.687Z,65.79
2022-11-18T15:59:11.678Z,65.77
2022-11-18T16:01:45.938Z,65.73
2022-11-18T16:04:21.834Z,65.99
2022-11-18T16:06:54.862Z,65.55
2022-11-18T16:09:48.837Z,65.01
2022-11-18T16:12:38.663Z,65.45
2022-11-18T16:15:31.325Z,65.32
2022-11-18T16:18:06.870Z,65.85
2022-11-18T16:20:40.290Z,65.69
2022-11-18T16:23:12.666Z,65.28
2022-11-18T16:25:47.751Z,65.32
2022-11-18T16:28:20.584Z,65.61
2022-11-18T16:31:08.949Z,65.51
2022-11-18T16:33:42.155Z,65.53
2022-11-18T16:36:14.307Z,65.63
2022-11-18T16:38:46.760Z,65.42
2022-11-18T16:41:33.474Z,65.63
2022-11-18T16:44:07.452Z,65.55
2022-11-18T16:46:41.508Z,65.79
2022-11-18T16:49:17.118Z,65.97
2022-11-18T16:51:51.888Z,65.61
2022-11-18T16:54:25.787Z,66.14
2022-11-18T16:56:59.637Z,66.23
2022-11-18T16:59:34.102Z,66.12
2022-11-18T17:02:12.492Z,66.11
2022-11-18T17:04:45.251Z,66.25
2022-11-18T17:07:17.733Z,65.82
2022-11-18T17:09:49.757Z,66.19
2022-11-18T17:12:21.875Z,66.33
2022-11-18T17:14:53.545Z,66.50
2022-11-18T17:17:25.817Z,66.79
2022-11-18T17:19:58.027Z,67.26
2022-11-18T17:22:30.012Z,67.00
2022-11-18T17:25:05.443Z,67.21
2022-11-18T17:27:38.761Z,66.70
2022-11-18T17:30:12.905Z,66.68
2022-11-18T17:32:45.828Z,67.30
2022-11-18T17:35:18.794Z,67.45
2022-11-18T17:37:50.882Z,67.70
2022-11-18T17:40:22.843Z,68.13
2022-11-18T17:42:54.542Z,68.31
2022-11-18T17:45:26.484Z,68.19
2022-11-18T17:47:58.718Z,67.77
2022-11-18T17:50:30.846Z,67.90
2022-11-18T17:53:02.697Z,68.01
2022-11-18T17:55:36.448Z,68.08
2022-11-18T17:58:08.576Z,67.53
2022-11-18T18:00:40.937Z,67.73
2022-11-18T18:03:12.721Z,67.88
2022-11-18T18:05:47.002Z,68.42
2022-11-18T18:08:19.581Z,67.81
2022-11-18T18:10:51.368Z,68.13
2022-11-18T18:13:41.225Z,67.97
2022-11-18T18:16:14.331Z,68.15
2022-11-18T18:18:47.164Z,68.58
2022-11-18T18:21:22.066Z,68.63
2022-11-18T18:23:55.284Z,68.52
2022-11-18T18:26:31.493Z,68.89
2022-11-18T18:29:07.413Z,68.38
2022-11-18T18:31:39.984Z,68.60
2022-11-18T18:34:11.885Z,68.45
2022-11-18T18:36:45.246Z,68.05
2022-11-18T18:39:20.491Z,68.36
2022-11-18T18:41:54.255Z,68.58
2022-11-18T18:44:46.295Z,69.09
2022-11-18T18:47:18.130Z,68.93
2022-11-18T18:49:49.880Z,69.06
2022-11-18T18:52:21.770Z,69.05
2022-11-18T18:54:53.877Z,69.04
2022-11-18T18:57:25.973Z,69.76
2022-11-18T18:59:57.961Z,69.78
2022-11-18T19:02:29.818Z,70.44
2022-11-18T19:05:01.560Z,70.12
2022-11-18T19:07:33.400Z,69.76
2022-11-18T19:10:07.433Z,69.18
2022-11-18T19:12:51.662Z,69.14
2022-11-18T19:15:23.539Z,68.67
2022-11-18T19:17:55.435Z,68.68
2022-11-18T19:20:37.576Z,68.95
2022-11-18T19:23:11.228Z,69.44
2022-11-18T19:25:43.971Z,69.55
2022-11-18T19:28:15.715Z,70.36
2022-11-18T19:30:47.772Z,71.52
2022-11-18T19:33:20.341Z,72.88
2022-11-18T19:35:50.865Z,74.51
2022-11-18T19:38:23.732Z,76.52
2022-11-18T19:41:00.890Z,78.07
2022-11-18T19:43:34.363Z,78.47
2022-11-18T19:46:07.171Z,80.00
2022-11-18T19:48:37.595Z,79.69
2022-11-18T19:51:12.854Z,79.18
2022-11-18T19:53:45.149Z,78.97
2022-11-18T19:56:19.430Z,80.10
2022-11-18T19:58:52.708Z,80.71
2022-11-18T20:01:27.770Z,81.70
2022-11-18T20:04:03.273Z,81.99
2022-11-18T20:06:37.163Z,82.13
2022-11-18T20:09:11.099Z,82.83
2022-11-18T20:11:44.010Z,82.77
2022-11-18T20:14:15.828Z,82.64
2022-11-18T20:16:47.874Z,82.67
2022-11-18T20:19:20.186Z,82.87
2022-11-18T20:21:50.673Z,82.85
2022-11-18T20:24:22.476Z,82.54
2022-11-18T20:26:54.956Z,82.32
2022-11-18T20:29:27.734Z,81.89
2022-11-18T20:31:58.576Z,81.68
2022-11-18T20:34:30.790Z,80.73
2022-11-18T20:37:03.591Z,80.00
2022-11-18T20:39:36.650Z,80.72
2022-11-18T20:42:26.002Z,80.01
2022-11-18T20:44:59.058Z,79.41
2022-11-18T20:47:32.063Z,79.29
2022-11-18T20:50:08.374Z,78.87
2022-11-18T20:52:40.925Z,78.52
2022-11-18T20:55:13.071Z,77.74
2022-11-18T20:57:46.105Z,77.38
2022-11-18T21:00:19.866Z,77.01
2022-11-18T21:02:52.025Z,76.34
2022-11-18T21:05:24.275Z,76.90
2022-11-18T21:07:56.223Z,76.90
2022-11-18T21:10:28.380Z,77.31
2022-11-18T21:13:18.069Z,76.89
2022-11-18T21:15:50.997Z,76.56
2022-11-18T21:18:22.920Z,76.88
2022-11-18T21:21:16.935Z,76.41
2022-11-18T21:23:54.046Z,76.02
2022-11-18T21:26:27.841Z,75.76
2022-11-18T21:29:02.689Z,76.15
2022-11-18T21:31:35.834Z,76.75
2022-11-18T21:34:08.863Z,75.96
2022-11-18T21:36:45.045Z,75.32
2022-11-18T21:39:19.633Z,75.32
2022-11-18T21:41:55.806Z,75.52
2022-11-18T21:44:28.955Z,75.47
2022-11-18T21:47:01.050Z,75.58
2022-11-18T21:49:33.061Z,75.17
2022-11-18T21:52:05.016Z,75.70
2022-11-18T21:54:36.819Z,75.70
2022-11-18T21:57:08.604Z,75.08
2022-11-18T21:59:40.428Z,74.88
2022-11-18T22:02:15.321Z,74.75
2022-11-18T22:04:54.468Z,75.06
2022-11-18T22:07:27.298Z,75.03
2022-11-18T22:09:59.577Z,74.99
2022-11-18T22:12:31.368Z,74.97
2022-11-18T22:15:03.538Z,75.20
2022-11-18T22:17:35.414Z,75.03
2022-11-18T22:20:09.226Z,75.16
2022-11-18T22:22:41.530Z,74.97
2022-11-18T22:25:13.785Z,75.16
2022-11-18T22:27:45.719Z,75.22
2022-11-18T22:30:18.230Z,75.00
2022-11-18T22:32:50.053Z,75.18
2022-11-18T22:35:22.072Z,74.67
2022-11-18T22:37:53.797Z,74.30
2022-11-18T22:40:26.578Z,74.42
2022-11-18T22:42:56.878Z,74.48
2022-11-18T22:45:28.951Z,74.02
2022-11-18T22:48:01.105Z,74.21
2022-11-18T22:50:33.217Z,74.24
2022-11-18T22:53:05.109Z,73.98
2022-11-18T22:55:36.742Z,73.28
2022-11-18T22:58:08.781Z,73.20
2022-11-18T23:00:40.707Z,73.43
2022-11-18T23:03:12.525Z,73.78
2022-11-18T23:05:47.966Z,73.20
2022-11-18T23:08:19.876Z,72.66
2022-11-18T23:10:52.104Z,72.65
2022-11-18T23:13:42.670Z,72.54
2022-11-18T23:16:14.406Z,73.10
2022-11-18T23:18:47.542Z,72.73
2022-11-18T23:21:20.258Z,72.64
2022-11-18T23:23:50.474Z,73.01
2022-11-18T23:26:23.943Z,72.36
2022-11-18T23:28:55.973Z,71.56
2022-11-18T23:31:29.077Z,71.61
2022-11-18T23:34:01.212Z,72.43
2022-11-18T23:36:33.310Z,73.48
2022-11-18T23:39:05.310Z,74.28
2022-11-18T23:41:37.282Z,73.87
2022-11-18T23:44:09.916Z,73.94
2022-11-18T23:46:40.261Z,73.63
2022-11-18T23:49:12.547Z,73.75
2022-11-18T23:51:44.175Z,73.96
2022-11-18T23:54:15.945Z,74.64
2022-11-18T23:56:47.681Z,74.70
2022-11-18T23:59:21.706Z,75.06
